Seacrest, Florida
Current Conditions -  °F | °C
As of 2:53 AM on Sunday 26 Oct 2014 (Local Time) from KECP Reporting Station
Clear Clear  
Wind Chill: 11°   Ceiling: Unl
Heat Index: 11°   Visibility: 10mi
Dew Point:   Wind: 3mph
Humidity: 89%   Direction: 300°WNW
Pressure: 30"   Gusts: NA
Location:  30.3525°N, 85.9093°W
Report Text: KECP 260753Z AUTO 30003KT 10SM CLR 11/09 A3000 RMK AO2 SLP170 T01110094 $
Loading
Personal Weather Stations






























Interactive Weather Map
Tropical Storm Tracking
New forecast layout! Learn more

10-Day Weather Forecast

Advertisements
Track Severe Weather on mobile